Login to view Products
 
Sunday, May 19, 2019 (11:33 UTC)
Fujairah International Airport
ICAO: OMFJ
IATA: FJR
  • METAR OMFJ 191100Z 34008KT 310V030 8000 BKN030 29/19 Q1007 RETSRA RMK A2976 =
  • TAF OMFJ 191100Z 1912/2018 10012KT 8000 SCT030 PROB30 1912/1914 VRB15G25KT 3000 TSRA FEW030CB BECMG 1915/1917 VRB03KT BECMG 2004/2006 07008KT PROB30 2009/2014 VRB15G25KT 3000 TSRA FEW030CB=
D:\Input Parser\Destinations\Final\11\OMFJL121811002005971667.txt
1